Time;durP1;ratioP1;P1;durP2;ratioP2;P2;SDS_P1;SDS_P2;PMS_P1;PMS_P2;Temp;Humidity;BMP_temperature;BMP_pressure;BME280_temperature;BME280_humidity;BME280_pressure;Samples;Min_cycle;Max_cycle;Signal;HPM_P1;HPM_P2
2022/03/22 00:02:01;;;;;;;13.93;7.05;;;;;;;3.18;41.33;101853.13;4516617;31;35225;-66
2022/03/22 00:04:29;;;;;;;11.02;6.82;;;;;;;3.12;41.27;101854.56;4516265;31;34721;-65
2022/03/22 00:06:56;;;;;;;11.38;6.47;;;;;;;3.30;40.20;101859.97;4516560;31;34334;-65
2022/03/22 00:09:23;;;;;;;11.98;7.12;;;;;;;3.56;39.29;101853.87;4516253;31;33816;-65
2022/03/22 00:11:51;;;;;;;11.25;6.78;;;;;;;3.73;37.69;101853.06;4515521;31;35337;-67
2022/03/22 00:14:18;;;;;;;13.25;6.25;;;;;;;3.17;38.99;101856.78;4515919;31;34667;-65
2022/03/22 00:17:06;;;;;;;9.60;6.05;;;;;;;2.75;40.39;101854.56;4516133;31;33556;-68
2022/03/22 00:19:54;;;;;;;10.52;6.72;;;;;;;2.88;39.49;101852.41;4515649;31;34729;-65
2022/03/22 00:22:22;;;;;;;11.20;6.32;;;;;;;2.63;38.95;101854.72;4516508;31;33962;-65
2022/03/22 00:24:49;;;;;;;12.32;6.55;;;;;;;2.04;40.79;101855.78;4516393;31;33717;-64
2022/03/22 00:27:16;;;;;;;11.10;6.47;;;;;;;2.95;39.03;101852.66;4516534;31;33235;-68
2022/03/22 00:29:44;;;;;;;10.35;6.55;;;;;;;3.05;39.86;101851.63;4516072;31;35007;-65
2022/03/22 00:32:12;;;;;;;11.27;6.28;;;;;;;3.18;39.48;101853.13;4516169;31;34088;-65
2022/03/22 00:34:44;;;;;;;10.70;6.20;;;;;;;3.04;39.96;101849.06;4515686;31;34132;-64
2022/03/22 00:37:17;;;;;;;9.75;5.95;;;;;;;3.10;39.11;101856.53;4516316;31;34375;-66
2022/03/22 00:39:45;;;;;;;11.30;6.53;;;;;;;2.70;39.78;101844.28;4515911;31;33871;-65
2022/03/22 00:42:14;;;;;;;14.23;6.55;;;;;;;2.86;40.47;101843.66;4516273;31;34272;-65
2022/03/22 00:44:41;;;;;;;11.55;6.57;;;;;;;3.26;39.24;101846.03;4516476;31;34757;-68
2022/03/22 00:47:09;;;;;;;13.35;7.00;;;;;;;2.88;39.70;101847.03;4516023;31;33753;-68
2022/03/22 00:49:37;;;;;;;13.35;6.55;;;;;;;3.53;38.25;101844.31;4516213;31;33933;-66
2022/03/22 00:52:04;;;;;;;3.03;2.05;;;;;;;3.00;40.45;101843.19;4516359;31;34284;-65
2022/03/22 00:54:33;;;;;;;1.40;1.08;;;;;;;3.43;40.11;101846.19;4516094;31;33997;-65
2022/03/22 00:57:01;;;;;;;10.15;5.90;;;;;;;3.68;38.58;101850.84;4515712;31;33291;-65
2022/03/22 01:02:14;;;;;;;8.52;5.85;;;;;;;3.48;37.95;101849.28;4516115;31;33964;-65
2022/03/22 01:04:43;;;;;;;5.47;3.80;;;;;;;3.32;38.28;101841.03;4515881;31;33950;-64
2022/03/22 01:07:10;;;;;;;1.98;1.87;;;;;;;2.75;40.29;101850.03;4515829;31;33605;-66
2022/03/22 01:09:38;;;;;;;11.12;6.10;;;;;;;2.86;39.53;101838.28;4515656;31;33992;-65
2022/03/22 01:12:06;;;;;;;9.60;5.97;;;;;;;2.79;40.20;101835.34;4516147;31;34372;-65
2022/03/22 01:14:33;;;;;;;8.25;5.53;;;;;;;2.73;41.36;101837.78;4515668;31;33942;-65
2022/03/22 01:17:02;;;;;;;0.90;0.88;;;;;;;2.89;42.51;101835.31;4516003;31;33268;-65
2022/03/22 01:19:29;;;;;;;14.32;5.82;;;;;;;3.19;38.76;101836.03;4515726;31;33903;-66
2022/03/22 01:21:57;;;;;;;10.20;5.82;;;;;;;2.63;40.72;101835.94;4515789;31;35109;-68
2022/03/22 01:24:25;;;;;;;0.52;0.52;;;;;;;2.99;41.65;101832.59;4514760;31;34044;-66
2022/03/22 01:26:52;;;;;;;11.18;6.35;;;;;;;2.81;39.96;101832.53;4515769;31;33555;-65
2022/03/22 01:29:20;;;;;;;1.00;0.60;;;;;;;2.30;40.06;101831.94;4515519;31;34808;-64
2022/03/22 01:31:49;;;;;;;9.13;5.62;;;;;;;1.71;41.25;101830.28;4515901;31;33981;-66
2022/03/22 01:34:16;;;;;;;9.57;5.80;;;;;;;2.04;40.37;101834.38;4515655;31;35171;-65
2022/03/22 01:36:44;;;;;;;11.68;5.90;;;;;;;1.98;40.73;101838.44;4515601;31;33341;-64
2022/03/22 01:39:11;;;;;;;0.60;0.60;;;;;;;2.21;41.14;101830.13;4515244;31;34768;-66
2022/03/22 01:41:39;;;;;;;9.85;6.10;;;;;;;2.38;40.31;101834.75;4515714;31;35695;-66
2022/03/22 01:44:06;;;;;;;0.60;0.60;;;;;;;2.30;41.10;101836.47;4515507;31;34429;-65
2022/03/22 01:46:35;;;;;;;9.32;5.78;;;;;;;2.41;41.04;101833.63;4515557;31;34303;-65
2022/03/22 01:49:03;;;;;;;9.85;5.40;;;;;;;2.67;40.34;101832.00;4514229;31;34128;-65
2022/03/22 01:51:34;;;;;;;9.38;5.53;;;;;;;2.43;41.10;101829.81;4515533;31;33943;-65
2022/03/22 01:54:02;;;;;;;10.68;5.80;;;;;;;2.47;41.39;101831.22;4515433;31;34016;-65
2022/03/22 01:56:30;;;;;;;0.90;0.60;;;;;;;2.53;40.08;101824.44;4515265;31;34328;-66
2022/03/22 01:58:58;;;;;;;9.07;5.50;;;;;;;2.75;39.79;101825.06;4515015;31;34676;-65
2022/03/22 02:07:01;;;;;;;8.38;5.00;;;;;;;2.41;40.37;101818.38;4514836;31;33472;-65
2022/03/22 02:09:29;;;;;;;10.00;5.55;;;;;;;2.04;41.30;101821.81;4512250;31;34777;-65
2022/03/22 02:11:56;;;;;;;10.48;6.03;;;;;;;1.84;42.14;101822.81;4515079;31;34137;-67
2022/03/22 02:14:25;;;;;;;2.62;2.42;;;;;;;2.14;41.58;101813.78;4514803;31;34160;-68
2022/03/22 02:16:52;;;;;;;9.13;5.82;;;;;;;2.07;42.92;101815.34;4514532;31;33535;-68
2022/03/22 02:19:20;;;;;;;10.68;5.97;;;;;;;2.38;40.59;101816.00;4514727;31;33958;-68
2022/03/22 02:21:53;;;;;;;9.48;5.78;;;;;;;2.01;41.84;101806.06;4514303;31;34299;-64
2022/03/22 02:24:21;;;;;;;8.95;4.97;;;;;;;1.84;42.41;101809.44;4512185;31;34091;-65
2022/03/22 02:26:48;;;;;;;9.25;5.50;;;;;;;2.09;40.85;101810.69;4514675;31;33802;-67
2022/03/22 02:29:17;;;;;;;9.88;5.87;;;;;;;1.40;43.19;101814.31;4514796;31;33615;-65
2022/03/22 02:31:45;;;;;;;10.18;6.07;;;;;;;2.07;42.10;101806.47;4514942;31;34093;-68
2022/03/22 02:34:13;;;;;;;3.30;2.78;;;;;;;1.91;42.06;101804.38;4514842;31;34839;-67
2022/03/22 02:36:40;;;;;;;8.95;5.85;;;;;;;1.72;43.09;101811.41;4516153;31;33339;-65
2022/03/22 02:39:08;;;;;;;9.38;5.70;;;;;;;2.19;42.43;101808.00;4517007;31;33010;-65
2022/03/22 02:41:35;;;;;;;0.62;0.62;;;;;;;2.33;41.41;101812.06;4516657;31;34263;-66
2022/03/22 02:44:03;;;;;;;12.98;6.45;;;;;;;1.97;42.64;101804.66;4517204;31;33962;-64
2022/03/22 02:46:30;;;;;;;8.25;4.80;;;;;;;2.18;41.76;101804.50;4517142;31;34375;-65
2022/03/22 02:48:58;;;;;;;9.93;5.78;;;;;;;1.97;42.35;101815.34;4516734;31;33912;-65
2022/03/22 02:51:25;;;;;;;8.25;5.07;;;;;;;2.16;41.66;101811.81;4516866;31;35127;-67
2022/03/22 02:53:53;;;;;;;9.15;5.25;;;;;;;2.60;40.91;101806.78;4517413;31;33759;-66
2022/03/22 02:56:20;;;;;;;0.50;0.50;;;;;;;2.46;41.26;101821.50;4517087;31;33587;-65
2022/03/22 02:58:48;;;;;;;8.38;5.10;;;;;;;2.01;42.50;101814.09;4516607;31;33741;-65
2022/03/22 03:01:15;;;;;;;8.27;4.95;;;;;;;2.19;41.26;101805.31;4516923;31;33479;-64
2022/03/22 03:03:43;;;;;;;1.20;1.10;;;;;;;1.69;42.13;101810.84;4517215;31;34055;-65
2022/03/22 03:06:12;;;;;;;10.13;5.85;;;;;;;2.19;42.62;101811.53;4516761;31;34125;-64
2022/03/22 03:08:39;;;;;;;7.87;5.30;;;;;;;2.00;41.87;101816.91;4516812;31;34303;-65
2022/03/22 03:11:07;;;;;;;10.50;5.40;;;;;;;1.58;43.53;101815.34;4517011;31;34267;-64
2022/03/22 03:16:22;;;;;;;9.98;5.80;;;;;;;1.67;42.69;101820.84;4516913;31;33759;-65
2022/03/22 03:18:51;;;;;;;10.32;6.15;;;;;;;1.42;43.36;101825.72;4516239;31;34519;-68
2022/03/22 03:21:18;;;;;;;7.05;4.53;;;;;;;1.34;43.97;101823.75;4516626;31;34947;-65
2022/03/22 03:23:46;;;;;;;9.20;5.50;;;;;;;1.34;43.72;101825.56;4502823;31;33715;-65
2022/03/22 03:26:13;;;;;;;1.00;1.00;;;;;;;1.62;43.47;101824.78;4509873;31;33142;-64
2022/03/22 03:28:41;;;;;;;9.32;5.70;;;;;;;1.90;43.01;101832.09;4512677;31;34071;-63
2022/03/22 03:31:08;;;;;;;8.75;5.20;;;;;;;1.35;43.58;101838.81;4513636;31;34292;-64
2022/03/22 03:33:36;;;;;;;9.10;5.25;;;;;;;1.47;44.49;101834.19;4500289;31;33585;-65
2022/03/22 03:36:03;;;;;;;11.15;6.00;;;;;;;1.17;43.92;101827.09;4512051;31;33598;-64
2022/03/22 03:38:31;;;;;;;10.85;5.30;;;;;;;1.06;44.11;101836.06;4504955;31;33466;-64
2022/03/22 03:43:44;;;;;;;10.13;6.07;;;;;;;1.49;43.87;101824.22;4512081;31;33968;-65
2022/03/22 03:48:59;;;;;;;0.50;0.50;;;;;;;0.93;44.46;101824.72;4513051;31;34492;-63
2022/03/22 03:51:28;;;;;;;11.15;5.32;;;;;;;1.45;43.87;101817.44;4503946;31;34114;-64
2022/03/22 03:53:57;;;;;;;0.95;0.95;;;;;;;1.50;43.66;101817.03;4515836;31;34893;-66
2022/03/22 03:56:25;;;;;;;8.98;5.32;;;;;;;1.22;44.54;101822.16;4507065;31;33365;-64
2022/03/22 03:58:54;;;;;;;1.77;1.67;;;;;;;1.22;44.34;101830.19;4515646;31;33498;-64
2022/03/22 04:01:22;;;;;;;10.60;5.87;;;;;;;1.14;44.80;101822.84;4515259;31;34559;-69
2022/03/22 04:03:50;;;;;;;12.80;5.45;;;;;;;1.55;43.84;101823.63;4515031;31;34105;-65
2022/03/22 04:06:17;;;;;;;10.38;5.90;;;;;;;1.40;44.21;101823.22;4506510;31;33377;-63
2022/03/22 04:08:45;;;;;;;9.52;5.20;;;;;;;1.35;44.62;101822.75;4503169;31;34000;-63
2022/03/22 04:11:12;;;;;;;0.70;0.70;;;;;;;1.20;44.39;101827.63;4513575;31;34016;-63
2022/03/22 04:13:40;;;;;;;9.48;5.20;;;;;;;1.73;44.04;101833.66;4514495;31;34540;-64
2022/03/22 04:16:07;;;;;;;11.52;5.45;;;;;;;1.65;43.82;101829.00;4513271;31;34296;-65
2022/03/22 04:18:35;;;;;;;0.50;0.50;;;;;;;1.39;44.07;101829.53;4505634;31;34567;-62
2022/03/22 04:21:02;;;;;;;8.02;4.95;;;;;;;1.13;44.25;101841.69;4515412;31;34072;-63
2022/03/22 04:23:30;;;;;;;9.68;6.47;;;;;;;1.41;44.59;101838.25;4516290;31;33880;-66
2022/03/22 04:25:58;;;;;;;1.60;1.25;;;;;;;1.43;44.58;101838.97;4508952;31;33984;-63
2022/03/22 04:33:59;;;;;;;0.60;0.60;;;;;;;1.15;45.66;101845.94;4506217;31;34120;-65
2022/03/22 04:36:28;;;;;;;9.85;5.85;;;;;;;1.76;44.79;101855.62;4512805;31;33367;-64
2022/03/22 04:38:56;;;;;;;0.50;0.50;;;;;;;2.00;44.23;101852.53;4504254;31;33949;-65
2022/03/22 04:41:23;;;;;;;10.55;5.37;;;;;;;1.86;43.55;101855.66;4505857;31;34295;-65
2022/03/22 04:43:51;;;;;;;10.55;5.37;;;;;;;1.17;45.70;101860.00;4510131;31;33994;-65
2022/03/22 04:46:18;;;;;;;10.05;5.70;;;;;;;1.30;45.25;101854.41;4509040;31;34052;-64
2022/03/22 04:48:47;;;;;;;1.42;0.60;;;;;;;1.84;43.31;101860.31;4514606;31;34742;-63
2022/03/22 04:56:48;;;;;;;0.68;0.68;;;;;;;1.28;45.02;101864.41;4515441;31;32767;-63
2022/03/22 04:59:24;;;;;;;10.45;5.68;;;;;;;1.32;45.53;101865.84;4503816;31;33493;-64
2022/03/22 05:01:51;;;;;;;8.52;5.30;;;;;;;1.25;44.94;101866.50;4512990;31;34280;-65
2022/03/22 05:04:19;;;;;;;0.75;0.73;;;;;;;1.42;44.54;101853.31;4507399;31;33968;-67
2022/03/22 05:06:46;;;;;;;0.60;0.60;;;;;;;1.59;44.24;101859.00;4515315;31;34287;-65
2022/03/22 05:09:14;;;;;;;10.40;6.32;;;;;;;1.92;43.26;101856.91;4512693;31;34662;-65
2022/03/22 05:11:42;;;;;;;0.85;0.80;;;;;;;1.32;44.37;101868.50;4513079;31;34907;-65
2022/03/22 05:14:09;;;;;;;9.85;5.97;;;;;;;1.35;44.61;101865.53;4513146;31;33986;-66
2022/03/22 05:16:39;;;;;;;10.13;5.82;;;;;;;1.37;45.46;101868.94;4514589;31;33466;-63
2022/03/22 05:19:06;;;;;;;1.85;1.20;;;;;;;1.84;43.72;101869.16;4513649;31;34841;-64
2022/03/22 05:21:34;;;;;;;10.30;6.20;;;;;;;1.84;43.92;101866.50;4507281;31;35048;-65
2022/03/22 05:24:01;;;;;;;1.75;1.65;;;;;;;1.97;45.24;101868.91;4513154;31;34037;-65
2022/03/22 05:26:29;;;;;;;0.60;0.60;;;;;;;1.88;45.12;101869.75;4510275;31;33079;-65
2022/03/22 05:28:57;;;;;;;13.45;6.60;;;;;;;2.30;45.00;101866.78;4509390;31;33189;-64
2022/03/22 05:31:25;;;;;;;10.02;6.37;;;;;;;1.75;45.71;101872.69;4505300;31;34973;-64
2022/03/22 05:33:53;;;;;;;2.37;1.87;;;;;;;1.98;44.59;101870.56;4513792;31;33758;-64
2022/03/22 05:36:20;;;;;;;17.67;7.97;;;;;;;2.22;42.91;101870.13;4514850;31;33018;-63
2022/03/22 05:38:48;;;;;;;25.23;13.90;;;;;;;1.63;43.58;101871.09;4512243;31;33983;-63
2022/03/22 05:41:15;;;;;;;14.10;9.02;;;;;;;1.44;43.34;101875.41;4513572;31;34105;-64
2022/03/22 05:43:43;;;;;;;20.85;12.95;;;;;;;2.36;42.36;101868.88;4514677;31;34985;-64
2022/03/22 05:46:11;;;;;;;23.73;12.98;;;;;;;2.60;42.16;101868.41;4513650;31;34570;-64
2022/03/22 05:48:38;;;;;;;1.12;1.02;;;;;;;3.49;41.58;101867.91;4507604;31;34921;-64
2022/03/22 05:51:06;;;;;;;20.05;11.12;;;;;;;4.98;37.84;101864.63;4513850;31;34212;-63
2022/03/22 05:53:33;;;;;;;20.15;10.27;;;;;;;5.87;36.83;101872.16;4510286;31;33699;-62
2022/03/22 05:56:01;;;;;;;2.22;2.05;;;;;;;6.87;34.40;101871.16;4514366;31;33471;-62
2022/03/22 05:58:29;;;;;;;18.00;9.63;;;;;;;7.68;33.95;101878.13;4513889;31;33728;-63
2022/03/22 06:00:57;;;;;;;21.17;12.30;;;;;;;8.57;31.73;101878.53;4500757;31;34762;-64
2022/03/22 06:03:25;;;;;;;19.85;10.40;;;;;;;9.22;31.72;101886.97;4502182;31;34464;-62
2022/03/22 06:05:52;;;;;;;17.90;9.90;;;;;;;9.73;30.18;101884.28;4513538;31;33574;-64
2022/03/22 06:08:20;;;;;;;17.65;9.85;;;;;;;10.25;28.74;101891.31;4510629;31;34001;-69
2022/03/22 06:10:47;;;;;;;15.68;9.27;;;;;;;10.82;27.94;101886.81;4514915;31;34212;-68
2022/03/22 06:13:16;;;;;;;15.18;9.60;;;;;;;11.37;26.83;101880.66;4516085;31;34697;-67
2022/03/22 06:15:49;;;;;;;14.63;9.20;;;;;;;11.75;27.85;101881.03;4512559;31;34263;-69
2022/03/22 06:18:16;;;;;;;19.55;9.57;;;;;;;12.29;26.50;101885.56;4512501;31;33620;-70
2022/03/22 06:20:44;;;;;;;14.38;8.88;;;;;;;13.11;25.95;101880.69;4515947;31;34160;-68
2022/03/22 06:23:14;;;;;;;16.90;9.10;;;;;;;13.41;25.51;101879.34;4514889;31;33893;-68
2022/03/22 06:25:42;;;;;;;17.42;8.55;;;;;;;13.77;25.73;101886.12;4512198;31;33437;-73
2022/03/22 06:28:10;;;;;;;16.00;8.55;;;;;;;14.63;24.15;101888.31;4509991;31;33917;-69
2022/03/22 06:30:38;;;;;;;14.18;8.45;;;;;;;14.81;25.04;101895.72;4513586;31;34276;-71
2022/03/22 06:33:17;;;;;;;13.75;8.38;;;;;;;15.32;22.38;101891.00;4510860;31;34213;-70
2022/03/22 06:35:46;;;;;;;13.65;7.82;;;;;;;16.12;22.95;101892.72;4509816;31;33896;-69
2022/03/22 06:38:13;;;;;;;12.07;7.00;;;;;;;14.91;22.04;101889.75;4515587;31;33456;-68
2022/03/22 06:40:41;;;;;;;10.00;6.47;;;;;;;15.88;21.82;101891.81;4505966;31;34075;-70
2022/03/22 06:43:12;;;;;;;9.05;6.20;;;;;;;15.70;19.70;101890.75;4515841;31;34084;-71
2022/03/22 06:45:39;;;;;;;11.45;6.78;;;;;;;16.81;19.99;101895.84;4512212;31;34215;-72
2022/03/22 06:48:08;;;;;;;10.30;6.60;;;;;;;16.54;21.49;101899.03;4514720;31;34695;-70
2022/03/22 06:50:37;;;;;;;11.05;6.82;;;;;;;17.01;18.77;101895.47;4506278;31;34330;-73
2022/03/22 06:53:05;;;;;;;10.57;6.62;;;;;;;17.39;19.73;101899.62;4514970;31;33693;-70
2022/03/22 06:55:34;;;;;;;14.80;7.60;;;;;;;17.67;18.14;101890.59;4507725;31;33364;-71
2022/03/22 06:58:03;;;;;;;12.00;7.53;;;;;;;18.47;18.26;101898.97;4511048;31;34007;-70
2022/03/22 07:00:31;;;;;;;12.52;7.72;;;;;;;17.89;17.43;101887.19;4512501;31;34306;-73
2022/03/22 07:03:01;;;;;;;13.60;8.25;;;;;;;17.68;17.28;101892.25;4501969;31;34018;-70
2022/03/22 07:05:30;;;;;;;14.20;8.05;;;;;;;18.87;15.80;101901.53;4515015;31;33881;-69
2022/03/22 07:07:59;;;;;;;12.25;8.13;;;;;;;19.12;15.80;101897.50;4515770;31;34443;-69
2022/03/22 07:10:26;;;;;;;12.43;7.85;;;;;;;19.91;14.79;101893.53;4505794;31;33724;-71
2022/03/22 07:12:55;;;;;;;15.85;7.95;;;;;;;19.60;15.09;101888.50;4512114;31;33728;-69
2022/03/22 07:15:30;;;;;;;14.05;8.10;;;;;;;19.94;15.96;101887.53;4514454;31;33156;-69
2022/03/22 07:18:00;;;;;;;13.00;7.75;;;;;;;20.53;15.80;101887.53;4513122;31;33507;-73
2022/03/22 07:20:28;;;;;;;13.20;8.45;;;;;;;21.01;14.31;101893.12;4511071;31;33653;-71
2022/03/22 07:22:59;;;;;;;13.70;9.05;;;;;;;20.88;14.81;101897.19;4509004;31;33759;-73
2022/03/22 07:25:28;;;;;;;15.65;8.70;;;;;;;20.85;14.39;101886.69;4513688;31;33459;-68
2022/03/22 07:27:56;;;;;;;17.37;9.20;;;;;;;22.02;13.58;101899.38;4506573;31;34789;-68
2022/03/22 07:30:24;;;;;;;18.40;10.25;;;;;;;22.13;13.28;101898.28;4505649;31;33836;-68
2022/03/22 07:32:52;;;;;;;17.33;10.00;;;;;;;21.54;13.43;101893.97;4511114;31;34017;-67
2022/03/22 07:35:19;;;;;;;17.50;9.57;;;;;;;21.67;13.87;101901.75;4512613;31;33027;-68
2022/03/22 07:37:49;;;;;;;14.70;9.57;;;;;;;20.25;13.74;101895.00;4510736;31;33242;-68
2022/03/22 07:40:18;;;;;;;18.12;9.93;;;;;;;19.47;14.80;101894.37;4514386;31;33958;-68
2022/03/22 07:42:48;;;;;;;14.05;9.60;;;;;;;19.13;14.77;101894.47;4505956;31;33787;-70
2022/03/22 07:45:19;;;;;;;15.45;9.60;;;;;;;18.59;16.68;101896.94;4511631;31;33579;-69
2022/03/22 07:47:47;;;;;;;15.07;9.18;;;;;;;18.84;15.98;101897.38;4510712;31;33390;-69
2022/03/22 07:53:05;;;;;;;17.30;9.73;;;;;;;18.21;14.94;101882.03;4504043;31;33759;-70
2022/03/22 07:55:40;;;;;;;15.88;9.90;;;;;;;16.81;16.82;101891.19;4512308;31;34331;-65
2022/03/22 07:58:08;;;;;;;15.65;10.13;;;;;;;16.30;17.08;101892.62;4514283;31;34110;-67
2022/03/22 08:00:38;;;;;;;20.00;11.05;;;;;;;16.48;17.42;101893.63;4514620;31;35201;-69
2022/03/22 08:03:10;;;;;;;17.48;10.38;;;;;;;15.85;17.94;101904.03;4511848;31;33903;-66
2022/03/22 08:05:39;;;;;;;16.52;11.07;;;;;;;15.68;17.88;101897.47;4510809;31;33652;-71
2022/03/22 08:08:07;;;;;;;19.23;10.95;;;;;;;14.87;19.11;101900.28;4506069;31;34577;-68
2022/03/22 08:10:54;;;;;;;16.30;11.12;;;;;;;15.73;17.53;101900.41;4506635;31;34076;-67
2022/03/22 08:13:22;;;;;;;17.92;10.88;;;;;;;15.10;18.51;101898.81;4512617;31;33880;-68
2022/03/22 08:15:50;;;;;;;16.70;10.27;;;;;;;15.73;17.78;101906.72;4508710;31;33567;-68
2022/03/22 08:18:18;;;;;;;18.45;11.18;;;;;;;16.32;17.33;101893.22;4508515;31;34071;-67
2022/03/22 08:20:45;;;;;;;17.40;10.43;;;;;;;16.88;17.20;101901.22;4509488;31;33798;-68
2022/03/22 08:23:14;;;;;;;15.88;10.60;;;;;;;17.11;16.56;101892.16;4501364;31;34352;-67
2022/03/22 08:25:43;;;;;;;17.05;10.55;;;;;;;17.35;16.59;101885.53;4509026;31;31845;-68
2022/03/22 08:28:12;;;;;;;17.98;10.88;;;;;;;16.76;16.92;101888.31;4508396;31;33739;-67
2022/03/22 08:30:40;;;;;;;19.48;11.32;;;;;;;15.83;17.93;101878.81;4510339;31;33625;-67
2022/03/22 08:33:09;;;;;;;17.58;11.02;;;;;;;15.90;17.94;101889.66;4507435;31;33657;-67
2022/03/22 08:35:41;;;;;;;16.37;10.32;;;;;;;15.44;18.24;101883.66;4508398;31;33089;-67
2022/03/22 08:38:10;;;;;;;17.55;10.40;;;;;;;15.89;17.54;101880.59;4508502;31;34564;-68
2022/03/22 08:40:39;;;;;;;18.90;10.90;;;;;;;16.44;16.95;101885.06;4501145;31;33687;-67
2022/03/22 08:43:07;;;;;;;17.52;11.27;;;;;;;16.53;17.75;101878.16;4510113;31;34121;-64
2022/03/22 08:45:35;;;;;;;16.23;10.57;;;;;;;16.46;18.03;101876.56;4507850;31;33010;-63
2022/03/22 08:48:09;;;;;;;18.23;10.27;;;;;;;17.19;16.83;101875.28;4510059;31;34759;-63
2022/03/22 08:50:47;;;;;;;16.85;9.93;;;;;;;17.91;16.26;101876.81;4508928;31;34051;-63
2022/03/22 08:53:16;;;;;;;19.83;10.45;;;;;;;17.25;16.03;101871.59;4512538;31;34046;-66
2022/03/22 08:55:51;;;;;;;15.98;10.75;;;;;;;16.60;16.63;101870.63;4506115;31;33270;-66
2022/03/22 08:58:19;;;;;;;16.00;10.45;;;;;;;16.97;16.83;101866.84;4510258;31;34804;-66
2022/03/22 09:00:47;;;;;;;18.15;11.25;;;;;;;16.94;16.46;101864.63;4502493;31;33740;-67
2022/03/22 09:03:14;;;;;;;24.75;11.70;;;;;;;17.00;17.19;101861.75;4512553;31;34648;-66
2022/03/22 09:08:29;;;;;;;16.77;10.07;;;;;;;15.94;17.88;101852.56;4505496;31;33760;-68
2022/03/22 09:10:57;;;;;;;15.90;10.05;;;;;;;16.09;17.37;101857.56;4512324;31;34159;-68
2022/03/22 09:13:28;;;;;;;16.30;10.18;;;;;;;15.65;17.85;101859.66;4502582;31;34402;-67
2022/03/22 09:15:56;;;;;;;17.87;9.93;;;;;;;16.46;17.35;101861.00;4506570;31;33390;-65
2022/03/22 09:18:25;;;;;;;19.67;10.40;;;;;;;16.80;16.84;101853.03;4512277;31;34692;-67
2022/03/22 09:20:53;;;;;;;15.88;9.93;;;;;;;16.53;17.60;101853.50;4515409;31;33826;-70
2022/03/22 09:23:21;;;;;;;16.80;10.18;;;;;;;16.87;16.71;101850.16;4509658;31;34693;-68
2022/03/22 09:25:50;;;;;;;18.77;10.45;;;;;;;16.52;17.81;101846.34;4509793;31;33620;-71
2022/03/22 09:28:17;;;;;;;16.50;9.75;;;;;;;16.94;16.76;101843.50;4513707;31;34793;-68
2022/03/22 09:30:48;;;;;;;17.80;10.60;;;;;;;17.61;16.03;101842.16;4514881;31;34735;-68
2022/03/22 09:33:17;;;;;;;17.17;9.98;;;;;;;17.37;16.17;101836.75;4501542;31;34614;-68
2022/03/22 09:35:47;;;;;;;14.45;9.63;;;;;;;17.11;16.56;101838.13;4509704;31;33524;-67
2022/03/22 09:38:16;;;;;;;18.75;10.52;;;;;;;17.79;16.36;101836.44;4507520;31;34706;-68
2022/03/22 09:40:44;;;;;;;17.37;9.75;;;;;;;18.11;15.68;101837.88;4502636;31;33936;-69
2022/03/22 09:43:12;;;;;;;17.20;9.70;;;;;;;17.82;15.86;101835.19;4512232;31;34689;-68
2022/03/22 09:45:42;;;;;;;13.43;8.98;;;;;;;17.47;16.27;101838.84;4503379;31;34189;-70
2022/03/22 09:48:15;;;;;;;15.38;9.77;;;;;;;16.74;17.37;101841.09;4516243;31;34880;-70
2022/03/22 09:53:33;;;;;;;17.15;9.00;;;;;;;16.50;17.47;101826.56;4504987;31;34053;-71
2022/03/22 09:56:00;;;;;;;16.30;9.00;;;;;;;16.87;16.86;101826.34;4510385;31;33358;-70
2022/03/22 09:58:27;;;;;;;15.63;9.25;;;;;;;17.30;16.48;101822.34;4516187;31;33422;-72
2022/03/22 10:00:55;;;;;;;13.60;8.80;;;;;;;16.93;16.36;101824.53;4516618;31;33798;-73
2022/03/22 10:03:23;;;;;;;18.12;9.32;;;;;;;17.25;16.56;101816.72;4504120;31;33706;-70
2022/03/22 10:05:58;;;;;;;16.62;8.88;;;;;;;17.29;16.16;101817.91;4509807;31;33316;-69
2022/03/22 10:08:26;;;;;;;15.15;8.93;;;;;;;17.40;16.23;101814.28;4509496;31;33754;-68
2022/03/22 10:11:03;;;;;;;14.73;8.82;;;;;;;16.97;16.23;101812.03;4503461;31;34012;-72
2022/03/22 10:13:34;;;;;;;16.80;9.63;;;;;;;16.96;16.78;101807.63;4504762;31;33947;-74
2022/03/22 10:16:04;;;;;;;15.18;8.75;;;;;;;16.73;17.21;101803.78;4509269;31;34447;-71
2022/03/22 10:18:36;;;;;;;13.77;8.45;;;;;;;17.02;16.34;101798.44;4510706;31;33843;-69
2022/03/22 10:21:05;;;;;;;15.20;8.93;;;;;;;17.37;16.17;101801.06;4504390;31;35082;-71
2022/03/22 10:23:34;;;;;;;15.57;8.15;;;;;;;17.82;15.59;101808.53;4512269;31;33926;-71
2022/03/22 10:26:03;;;;;;;15.43;8.38;;;;;;;17.02;16.38;101795.69;4505923;31;33282;-69
2022/03/22 10:28:32;;;;;;;13.00;7.82;;;;;;;18.14;15.63;101796.16;4505704;31;34607;-71
2022/03/22 10:31:00;;;;;;;16.60;8.50;;;;;;;18.10;16.17;101792.25;4514736;31;34003;-71
2022/03/22 10:33:27;;;;;;;12.82;7.72;;;;;;;17.72;16.15;101794.59;4512632;31;34456;-73
2022/03/22 10:35:55;;;;;;;13.65;8.00;;;;;;;17.39;15.88;101793.44;4507237;31;33694;-75
2022/03/22 10:38:23;;;;;;;14.07;8.30;;;;;;;18.04;16.60;101783.94;4506278;31;33488;-73
2022/03/22 10:40:50;;;;;;;13.18;8.05;;;;;;;17.80;15.72;101785.13;4512970;31;35638;-69
2022/03/22 10:43:20;;;;;;;15.88;8.48;;;;;;;18.64;15.55;101782.37;4503215;31;34785;-74
2022/03/22 10:45:52;;;;;;;15.40;8.00;;;;;;;19.12;15.12;101773.69;4512011;31;33751;-73
2022/03/22 10:48:23;;;;;;;11.20;7.20;;;;;;;18.52;14.83;101772.59;4515863;31;34834;-70
2022/03/22 10:50:51;;;;;;;12.50;7.95;;;;;;;18.28;15.71;101772.78;4511414;31;33806;-66
2022/03/22 10:53:20;;;;;;;15.13;7.80;;;;;;;18.16;15.54;101769.28;4513452;31;33896;-72
2022/03/22 10:55:48;;;;;;;12.88;7.47;;;;;;;17.78;15.86;101768.91;4503936;31;33056;-68
2022/03/22 10:58:21;;;;;;;12.50;7.85;;;;;;;18.22;15.55;101765.53;4508366;31;33879;-71
2022/03/22 11:00:49;;;;;;;12.77;7.68;;;;;;;18.48;15.17;101758.50;4516158;31;34166;-68
2022/03/22 11:03:18;;;;;;;14.10;7.80;;;;;;;19.80;15.29;101754.88;4503018;31;34891;-68
2022/03/22 11:05:49;;;;;;;12.10;7.28;;;;;;;20.12;14.54;101749.38;4510800;31;34250;-70
2022/03/22 11:08:22;;;;;;;11.15;7.10;;;;;;;20.97;14.22;101756.78;4507658;31;35134;-67
2022/03/22 11:10:51;;;;;;;11.50;7.15;;;;;;;20.74;13.85;101741.53;4503317;31;34272;-67
2022/03/22 11:13:19;;;;;;;14.32;7.68;;;;;;;21.05;14.14;101742.47;4513198;31;33880;-67
2022/03/22 11:15:48;;;;;;;10.60;6.47;;;;;;;20.24;13.58;101732.66;4505902;31;33530;-67
2022/03/22 11:18:18;;;;;;;13.32;7.35;;;;;;;19.66;13.94;101732.44;4506724;31;34626;-68
2022/03/22 11:20:50;;;;;;;12.57;7.07;;;;;;;19.78;13.92;101735.03;4510568;31;35079;-68
2022/03/22 11:23:23;;;;;;;11.65;7.07;;;;;;;19.70;13.62;101730.00;4501867;31;33666;-70
2022/03/22 11:25:51;;;;;;;11.65;7.00;;;;;;;20.43;13.52;101731.13;4509244;31;34361;-67
2022/03/22 11:28:20;;;;;;;11.00;6.78;;;;;;;19.75;15.94;101724.56;4509035;31;34544;-68
2022/03/22 11:30:48;;;;;;;13.35;7.25;;;;;;;18.98;15.07;101716.28;4508944;31;33906;-67
2022/03/22 11:36:20;;;;;;;10.52;6.62;;;;;;;20.02;15.89;101713.44;4511502;31;33674;-69
2022/03/22 11:38:50;;;;;;;11.90;6.55;;;;;;;20.34;14.38;101698.78;4515571;31;33612;-68
2022/03/22 11:44:37;;;;;;;10.75;6.47;;;;;;;18.82;14.10;101698.78;4510276;31;33937;-68
2022/03/22 11:47:11;;;;;;;12.80;6.93;;;;;;;20.49;12.78;101696.12;4514191;31;34144;-68
2022/03/22 11:49:49;;;;;;;12.85;6.53;;;;;;;19.12;13.99;101694.72;4515697;31;34884;-67
2022/03/22 11:52:18;;;;;;;12.98;7.07;;;;;;;20.53;15.18;101699.19;4508320;31;34054;-69
2022/03/22 11:54:58;;;;;;;10.23;5.95;;;;;;;19.26;14.54;101692.38;4514608;31;34711;-67
2022/03/22 11:57:40;;;;;;;9.43;5.72;;;;;;;20.96;13.21;101678.69;4513731;31;33765;-68
2022/03/22 12:00:08;;;;;;;9.55;5.43;;;;;;;20.10;13.61;101685.41;4507466;31;34560;-67
2022/03/22 12:02:38;;;;;;;8.55;5.40;;;;;;;21.28;12.28;101684.00;4512267;31;34248;-69
2022/03/22 12:05:05;;;;;;;10.88;6.20;;;;;;;20.31;12.83;101678.09;4514655;31;33580;-68
2022/03/22 12:07:36;;;;;;;8.73;5.30;;;;;;;20.51;13.41;101676.56;4498689;31;32912;-67
2022/03/22 12:10:11;;;;;;;8.88;5.47;;;;;;;21.00;12.56;101668.78;4513331;31;34165;-69
2022/03/22 12:12:42;;;;;;;9.32;5.65;;;;;;;20.13;13.01;101660.09;4511991;31;33922;-73